LYTVLGZA

Guest
Details From LYTV - Tivat
To LGZA - Dionysios Solomos
Flight Number -
Tags generated
Created
Modified
Stats Distance 297 nm / 550 km
Max Altitude 35,000 ft / 10,668 m
Waypoints 8
Social Downloads 2
Likes 0
Share VATSIM

Download

Looking for another format? Having issues loading an existing format? Contact us
Advertisement - Login to hide

Notes

Basic altitude profile: - Ascent Rate: 2500ft/min - Ascent Speed: 250kts - Cruise Altitude: 35000ft - Cruise Speed: 480kts - Descent Rate: 1500ft/min - Descent Speed: 250kts Options: - Use NATs: yes - Use PACOTS: yes - Use low airways: yes - Use high airways: yes

Route

LYTV LASTI R45 RODON UW62 KRK UH51 KESAL LGZA

ID Type Via Altitude Latitude Longitude Leg Dist Tot Dist Heading (true) Name
O LYTV APT - 0 ft / 0 m 42.40466˚ 18.72329˚ - 0 nm - Tivat
LASTI FIX - 7,000 ft / 2,134 m 42.10044˚ 18.88508˚ 19 nm 19 nm 158° / 159° -
RODON FIX R45 (AWY-LO) 21,200 ft / 6,462 m 41.45833˚ 19.10000˚ 39 nm 59 nm 166° / 166° -
GRIBA FIX UW62 (AWY-HI) 35,000 ft / 10,668 m 40.47472˚ 19.62000˚ 63 nm 122 nm 158° / 158° -
PITAS FIX UW62 (AWY-HI) 29,600 ft / 9,022 m 39.90000˚ 19.84444˚ 36 nm 159 nm 163° / 163° -
KRK VOR UW62 (AWY-HI) 23,500 ft / 7,163 m 39.44389˚ 20.07278˚ 29 nm 188 nm 159° / 159° KERKIRA VOR-DME
KESAL FIX UH51 (AWY-HI) 23,500 ft / 7,163 m 38.69694˚ 20.52583˚ 49 nm 237 nm 155° / 155° -
O LGZA APT - 0 ft / 0 m 37.75123˚ 20.88411˚ 59 nm 297 nm 163° / 164° Dionysios Solomos

Altitude Profile

Advertisement - Login to hide

Weather


0- 5 10 15 20 25 30 35+ Temperature / ° C

Clouds and Precipitation
Forecast for 2018-05-24 12:00 UTC. Updated 3 hours ago

Ground ~20,000 ft ~40,000 ft Winds

LYTV

Details ICAO LYTV (TIV)
Name Tivat
Region Serbia and Montenegro
Timezone Europe/Podgorica (UTC+2.0)
Stats Elevation 20 ft / 6 m (AMSL)
Location 42.404657° 18.723295°
Runways 1
Magnetic Variation 4.209° E

METAR

LYTV 241400Z 23004KT 160V280 9999 SCT033 25/15 Q1013 NOSIG

Decode

TAF

TAF LYTV 241100Z 2412/2512 23008KT 9999 FEW020 SCT033 TX27/2413Z TN14/2503Z PROB40 TEMPO 2412/2418 5000 TSRA FEW023CB BKN033

Decode

Departure Runways

ID Width Length Bearing (true) Bearing (mag) Surface Threshold Offset Overrun Length
14 148 ft / 45 m 8,206 ft / 2,501 m 139.03° 134.82° Asphalt 300 ft / 91 m 0 ft / 0 m
32 148 ft / 45 m 8,206 ft / 2,501 m 319.04° 314.83° Asphalt 300 ft / 91 m 0 ft / 0 m

LGZA

Details ICAO LGZA (ZTH)
Name Dionysios Solomos
Region Greece
Timezone Europe/Athens (UTC+3.0)
Stats Elevation 14 ft / 4 m (AMSL)
Location 37.751230° 20.884106°
Runways 1
Magnetic Variation 4.115° E

METAR

LGZA 241350Z 34011KT 9999 FEW020 25/17 Q1012

Decode

TAF

Not found

Destination Runways

ID Width Length Bearing (true) Bearing (mag) Surface Threshold Offset Overrun Length
16 148 ft / 45 m 7,315 ft / 2,230 m 163.49° 159.37° Asphalt 715 ft / 218 m 112 ft / 34 m
34 148 ft / 45 m 7,315 ft / 2,230 m 343.49° 339.37° Asphalt 728 ft / 222 m 135 ft / 41 m